createdAt,value
2019-05-14T00:00:27.183Z,3.77
2019-05-14T00:05:28.581Z,1.77
2019-05-14T00:10:31.991Z,3.33
2019-05-14T00:15:32.237Z,4.27
2019-05-14T00:20:33.595Z,2.97
2019-05-14T00:25:34.982Z,3.87
2019-05-14T00:30:36.424Z,1.83
2019-05-14T00:35:37.801Z,1.60
2019-05-14T00:40:39.177Z,2.87
2019-05-14T00:45:41.824Z,2.63
2019-05-14T00:50:42.166Z,1.20
2019-05-14T00:55:43.308Z,4.90
2019-05-14T01:00:45.552Z,2.63
2019-05-14T01:05:46.957Z,3.27
2019-05-14T01:10:48.313Z,4.30
2019-05-14T01:15:52.157Z,4.27
2019-05-14T01:20:52.135Z,3.47
2019-05-14T01:25:53.333Z,2.83
2019-05-14T01:30:54.712Z,3.03
2019-05-14T01:36:02.166Z,2.97
2019-05-14T01:41:02.162Z,3.77
2019-05-14T01:46:03.330Z,3.63
2019-05-14T01:51:12.456Z,4.50
2019-05-14T01:56:14.588Z,4.23
2019-05-14T02:01:15.957Z,2.30
2019-05-14T02:06:17.349Z,3.03
2019-05-14T02:11:18.735Z,3.10
2019-05-14T02:16:21.923Z,2.20
2019-05-14T02:21:22.842Z,1.70
2019-05-14T02:26:24.513Z,3.97
2019-05-14T02:31:29.042Z,2.30
2019-05-14T02:36:30.877Z,3.23
2019-05-14T02:41:30.212Z,2.83
2019-05-14T02:46:31.620Z,3.00
2019-05-14T02:51:32.987Z,3.30
2019-05-14T02:56:34.533Z,4.27
2019-05-14T03:01:40.003Z,7.27
2019-05-14T03:06:39.436Z,4.63
2019-05-14T03:11:40.408Z,3.20
2019-05-14T03:16:40.735Z,3.70
2019-05-14T03:21:44.301Z,4.33
2019-05-14T03:26:45.743Z,3.13
2019-05-14T03:31:52.963Z,3.60
2019-05-14T03:36:52.619Z,3.13
2019-05-14T03:41:51.680Z,4.10
2019-05-14T03:46:56.018Z,7.57
2019-05-14T03:51:55.301Z,8.27
2019-05-14T03:57:00.113Z,6.93
2019-05-14T04:01:59.627Z,3.03
2019-05-14T04:06:59.990Z,5.57
2019-05-14T04:12:00.999Z,3.20
2019-05-14T04:17:09.785Z,3.37
2019-05-14T04:22:03.982Z,3.43
2019-05-14T04:27:11.513Z,7.37
2019-05-14T04:32:09.398Z,4.50
2019-05-14T04:42:43.593Z,4.67
2019-05-14T04:47:45.190Z,3.07
2019-05-14T04:52:49.388Z,7.23
2019-05-14T04:57:50.000Z,4.50
2019-05-14T05:02:50.062Z,4.03
2019-05-14T05:07:51.676Z,3.97
2019-05-14T05:12:53.043Z,5.17
2019-05-14T05:17:54.416Z,5.93
2019-05-14T05:22:56.141Z,5.03
2019-05-14T05:27:59.762Z,3.53
2019-05-14T05:32:59.841Z,4.77
2019-05-14T05:38:01.078Z,5.97
2019-05-14T05:43:02.449Z,3.43
2019-05-14T05:48:03.833Z,5.90
2019-05-14T05:53:05.144Z,4.83
2019-05-14T05:58:08.661Z,3.83
2019-05-14T06:03:10.902Z,3.20
2019-05-14T06:08:09.351Z,3.73
2019-05-14T06:13:13.811Z,5.17
2019-05-14T06:18:18.065Z,4.40
2019-05-14T06:23:13.490Z,3.57
2019-05-14T06:28:14.826Z,4.47
2019-05-14T06:33:16.361Z,3.77
2019-05-14T06:38:18.521Z,2.27
2019-05-14T06:43:19.121Z,3.13
2019-05-14T06:48:30.879Z,6.37
2019-05-14T06:53:21.713Z,6.17
2019-05-14T06:58:23.143Z,3.93
2019-05-14T07:03:24.480Z,6.47
2019-05-14T07:08:28.274Z,5.27
2019-05-14T07:13:29.285Z,4.27
2019-05-14T07:18:33.291Z,2.87
2019-05-14T07:23:29.869Z,3.67
2019-05-14T07:28:31.398Z,3.87
2019-05-14T07:33:33.469Z,3.20
2019-05-14T07:38:35.517Z,4.20
2019-05-14T07:43:39.129Z,2.63
2019-05-14T07:48:39.332Z,4.47
2019-05-14T07:53:42.370Z,3.37
2019-05-14T07:58:40.949Z,3.93
2019-05-14T08:03:42.291Z,3.30
2019-05-14T08:08:43.612Z,2.47
2019-05-14T08:13:44.961Z,1.63
2019-05-14T08:18:48.459Z,3.20
2019-05-14T08:23:48.067Z,4.13
2019-05-14T08:28:49.187Z,3.27
2019-05-14T08:33:50.389Z,2.00
2019-05-14T08:38:51.729Z,2.00
2019-05-14T08:43:53.164Z,3.67
2019-05-14T08:48:54.496Z,5.13
2019-05-14T08:53:55.858Z,3.53
2019-05-14T08:58:59.092Z,4.20
2019-05-14T09:03:59.587Z,2.83
2019-05-14T09:08:59.977Z,5.43
2019-05-14T09:14:01.344Z,2.87
2019-05-14T09:19:02.708Z,3.67
2019-05-14T09:24:04.045Z,5.60
2019-05-14T09:29:18.490Z,4.03
2019-05-14T09:34:09.050Z,4.60
2019-05-14T09:39:11.800Z,4.03
2019-05-14T09:44:09.512Z,5.37
2019-05-14T09:49:10.919Z,4.80
2019-05-14T09:54:12.290Z,5.20
2019-05-14T09:59:14.365Z,4.30
2019-05-14T10:04:16.410Z,4.33
2019-05-14T10:09:17.813Z,2.43
2019-05-14T10:14:20.036Z,3.83
2019-05-14T10:19:21.486Z,3.00
2019-05-14T10:24:22.858Z,4.07
2019-05-14T10:29:24.199Z,4.73
2019-05-14T10:34:25.538Z,4.30
2019-05-14T10:39:29.549Z,4.50
2019-05-14T10:44:29.267Z,4.33
2019-05-14T10:49:30.147Z,2.93
2019-05-14T10:54:31.019Z,3.17
2019-05-14T10:59:32.372Z,3.10
2019-05-14T11:04:34.760Z,2.20
2019-05-14T11:09:37.876Z,4.50
2019-05-14T11:14:38.823Z,5.27
2019-05-14T11:19:39.366Z,2.27
2019-05-14T11:24:40.686Z,2.00
2019-05-14T11:29:42.040Z,1.70
2019-05-14T11:34:43.439Z,3.00
2019-05-14T11:39:44.775Z,1.70
2019-05-14T11:44:48.660Z,2.27
2019-05-14T11:49:49.191Z,4.23
2019-05-14T11:54:49.489Z,1.53
2019-05-14T11:59:50.313Z,3.13
2019-05-14T12:04:51.647Z,2.50
2019-05-14T12:09:53.739Z,2.77
2019-05-14T12:14:58.140Z,4.10
2019-05-14T12:19:59.430Z,2.43
2019-05-14T12:24:59.757Z,2.57
2019-05-14T12:30:01.109Z,3.23
2019-05-14T12:35:02.451Z,5.37
2019-05-14T12:40:04.809Z,2.23
2019-05-14T12:45:09.194Z,2.97
2019-05-14T12:50:09.345Z,4.33
2019-05-14T12:55:09.850Z,3.57
2019-05-14T13:00:11.204Z,1.53
2019-05-14T13:05:12.524Z,1.97
2019-05-14T13:10:13.876Z,1.03
2019-05-14T13:15:15.205Z,2.10
2019-05-14T13:20:18.586Z,1.57
2019-05-14T13:25:18.813Z,1.47
2019-05-14T13:30:19.321Z,3.27
2019-05-14T13:35:20.633Z,1.40
2019-05-14T13:40:21.965Z,1.73
2019-05-14T13:45:24.040Z,1.73
2019-05-14T13:50:25.506Z,2.63
2019-05-14T13:55:30.454Z,4.87
2019-05-14T14:00:28.320Z,1.70
2019-05-14T14:05:29.646Z,2.13
2019-05-14T14:10:36.233Z,1.87
2019-05-14T14:15:34.401Z,1.40
2019-05-14T14:20:36.118Z,2.20
2019-05-14T14:25:39.512Z,1.30
2019-05-14T14:30:39.462Z,1.10
2019-05-14T14:35:50.558Z,1.27
2019-05-14T14:40:51.878Z,2.23
2019-05-14T14:45:53.310Z,1.97
2019-05-14T14:50:55.491Z,1.43
2019-05-14T14:56:00.109Z,1.97
2019-05-14T15:00:59.430Z,1.10
2019-05-14T15:06:03.392Z,2.10
2019-05-14T15:11:08.316Z,1.60
2019-05-14T15:16:12.818Z,1.27
2019-05-14T15:21:09.695Z,0.80
2019-05-14T15:26:11.967Z,1.43
2019-05-14T15:31:11.731Z,2.07
2019-05-14T15:36:13.097Z,2.60
2019-05-14T15:41:14.450Z,1.83
2019-05-14T15:46:18.284Z,0.83
2019-05-14T15:51:19.463Z,1.20
2019-05-14T15:56:19.006Z,0.80
2019-05-14T16:01:20.358Z,0.90
2019-05-14T16:06:22.419Z,1.00
2019-05-14T16:11:23.762Z,1.77
2019-05-14T16:16:25.100Z,0.80
2019-05-14T16:21:28.760Z,1.63
2019-05-14T16:26:29.266Z,1.10
2019-05-14T16:31:31.623Z,1.40
2019-05-14T16:36:32.106Z,1.37
2019-05-14T16:41:33.461Z,0.93
2019-05-14T16:46:34.881Z,0.80
2019-05-14T16:51:36.238Z,3.43
2019-05-14T16:56:41.323Z,2.20
2019-05-14T17:01:39.866Z,1.87
2019-05-14T17:06:41.210Z,1.33
2019-05-14T17:11:42.589Z,3.13
2019-05-14T17:16:44.681Z,2.50
2019-05-14T17:21:48.546Z,1.57
2019-05-14T17:26:48.849Z,1.10
2019-05-14T17:31:49.308Z,0.97
2019-05-14T17:36:50.117Z,2.20
2019-05-14T17:41:51.489Z,0.70
2019-05-14T17:46:52.889Z,0.90
2019-05-14T17:51:54.969Z,1.60
2019-05-14T17:56:59.030Z,1.07
2019-05-14T18:01:58.470Z,1.20
2019-05-14T18:06:59.866Z,0.80
2019-05-14T18:12:01.237Z,1.70
2019-05-14T18:17:02.633Z,1.73
2019-05-14T18:22:04.068Z,1.23
2019-05-14T18:27:05.459Z,1.07
2019-05-14T18:32:09.040Z,1.63
2019-05-14T18:37:13.746Z,1.70
2019-05-14T18:42:09.733Z,2.70
2019-05-14T18:47:11.884Z,2.27
2019-05-14T18:52:13.201Z,2.40
2019-05-14T18:57:14.564Z,1.77
2019-05-14T19:02:18.287Z,0.93
2019-05-14T19:07:18.889Z,0.80
2019-05-14T19:12:20.458Z,1.30
2019-05-14T19:17:23.818Z,2.77
2019-05-14T19:22:28.983Z,1.40
2019-05-14T19:27:32.576Z,1.07
2019-05-14T19:32:39.181Z,2.03
2019-05-14T19:37:41.096Z,3.27
2019-05-14T19:42:43.568Z,1.10
2019-05-14T19:47:45.574Z,3.33
2019-05-14T19:52:52.066Z,1.37
2019-05-14T19:57:58.371Z,1.10
2019-05-14T20:03:01.853Z,1.30
2019-05-14T20:08:08.729Z,1.30
2019-05-14T20:13:11.329Z,1.20
2019-05-14T20:18:14.214Z,1.03
2019-05-14T20:23:15.588Z,1.30
2019-05-14T20:28:18.994Z,1.33
2019-05-14T20:33:19.234Z,1.23
2019-05-14T20:38:20.423Z,1.10
2019-05-14T20:43:21.773Z,1.20
2019-05-14T20:48:23.161Z,1.40
2019-05-14T20:53:24.574Z,1.40
2019-05-14T20:58:27.812Z,1.37
2019-05-14T21:03:29.038Z,1.27
2019-05-14T21:08:30.133Z,1.10
2019-05-14T21:13:31.471Z,1.43
2019-05-14T21:18:35.077Z,1.30
2019-05-14T21:23:34.204Z,0.90
2019-05-14T21:28:35.555Z,1.30
2019-05-14T21:33:38.903Z,1.37
2019-05-14T21:38:40.920Z,1.53
2019-05-14T21:43:39.660Z,1.60
2019-05-14T21:48:41.015Z,1.30
2019-05-14T21:53:42.369Z,1.30
2019-05-14T21:58:43.803Z,1.47
2019-05-14T22:03:45.903Z,2.70
2019-05-14T22:08:48.797Z,2.50
2019-05-14T22:13:49.701Z,2.07
2019-05-14T22:18:50.756Z,1.60
2019-05-14T22:23:52.137Z,1.80
2019-05-14T22:28:53.453Z,2.07
2019-05-14T22:33:54.793Z,1.60
2019-05-14T22:38:57.904Z,2.00
2019-05-14T22:44:00.054Z,1.73
2019-05-14T22:48:59.901Z,1.73
2019-05-14T22:54:01.256Z,2.07
2019-05-14T22:59:02.633Z,2.20
2019-05-14T23:04:03.982Z,2.23
2019-05-14T23:09:05.385Z,2.93
2019-05-14T23:14:06.780Z,2.00
2019-05-14T23:19:08.140Z,1.93
2019-05-14T23:24:09.484Z,2.47
2019-05-14T23:29:10.843Z,1.77
2019-05-14T23:34:12.951Z,2.63
2019-05-14T23:39:14.325Z,2.40
2019-05-14T23:44:15.716Z,3.27
2019-05-14T23:49:18.396Z,2.90
2019-05-14T23:54:18.445Z,2.10
2019-05-14T23:59:19.813Z,3.40
